PILOTS ONLINE: 484    ATC ONLINE: 86

KSKA - Fairchild Air Force Base

Location

IATA SKA
City Spokane
Country  United States
Latitude 47° 36' 54" N
Longitude 117° 39' 21" W
Elevation 2461 ft
Type Large Airport

Runways

05/23 13901 ft / 200 ft

Weather

METAR
2014/07/25 21:58
KSKA 252158Z AUTO 23006KT 10SM CLR 23/05 A3008 RMK AO2 SLP183 T02310046
TAF
2014/07/25 19:09
TAF KSKA 2519/2701 15009KT 9999 SKC QNH3002INS 
      BECMG 2608/2609 18006KT 9999 SKC QNH3007INS 
      BECMG 2620/2621 22009KT 9999 SKC QNH3003INS TX24/2523Z TN07/2612Z

Outbound flights

Inbound flights